createdAt,value
2023-02-01T00:00:35.630Z,99.90
2023-02-01T00:02:41.901Z,99.90
2023-02-01T00:04:45.409Z,99.90
2023-02-01T00:06:48.979Z,99.90
2023-02-01T00:08:54.961Z,99.90
2023-02-01T00:11:01.956Z,99.90
2023-02-01T00:13:05.294Z,99.90
2023-02-01T00:15:10.096Z,99.90
2023-02-01T00:17:15.110Z,99.90
2023-02-01T00:19:18.480Z,99.90
2023-02-01T00:21:23.433Z,99.90
2023-02-01T00:23:26.898Z,99.90
2023-02-01T00:25:30.426Z,99.90
2023-02-01T00:27:33.680Z,99.90
2023-02-01T00:29:37.049Z,99.90
2023-02-01T00:31:40.757Z,99.90
2023-02-01T00:33:49.010Z,99.90
2023-02-01T00:35:52.506Z,99.90
2023-02-01T00:37:55.770Z,99.90
2023-02-01T00:39:59.164Z,99.90
2023-02-01T00:42:03.630Z,99.90
2023-02-01T00:44:07.018Z,99.90
2023-02-01T00:46:11.194Z,99.90
2023-02-01T00:48:14.766Z,99.90
2023-02-01T00:50:20.097Z,99.90
2023-02-01T00:52:24.047Z,99.90
2023-02-01T00:54:27.503Z,99.90
2023-02-01T00:56:30.924Z,99.90
2023-02-01T00:58:35.069Z,99.90
2023-02-01T01:00:38.484Z,99.90
2023-02-01T01:02:41.919Z,99.90
2023-02-01T01:04:45.187Z,99.90
2023-02-01T01:06:49.971Z,99.90
2023-02-01T01:08:54.356Z,99.90
2023-02-01T01:10:58.009Z,99.90
2023-02-01T01:13:01.296Z,99.90
2023-02-01T01:15:05.148Z,99.90
2023-02-01T01:17:08.566Z,99.90
2023-02-01T01:19:13.007Z,99.90
2023-02-01T01:21:18.169Z,99.90
2023-02-01T01:23:22.812Z,99.90
2023-02-01T01:25:26.178Z,99.90
2023-02-01T01:27:29.503Z,99.90
2023-02-01T01:29:32.855Z,99.90
2023-02-01T01:31:36.294Z,99.90
2023-02-01T01:33:39.658Z,99.90
2023-02-01T01:35:43.916Z,99.90
2023-02-01T01:37:47.216Z,99.90
2023-02-01T01:39:52.004Z,99.90
2023-02-01T01:41:55.271Z,99.90
2023-02-01T01:44:00.322Z,99.90
2023-02-01T01:46:04.065Z,99.90
2023-02-01T01:48:10.443Z,99.90
2023-02-01T01:50:18.822Z,99.90
2023-02-01T01:52:22.565Z,99.90
2023-02-01T01:54:31.667Z,99.90
2023-02-01T01:56:37.615Z,99.90
2023-02-01T01:58:41.048Z,99.90
2023-02-01T02:00:45.653Z,99.90
2023-02-01T02:02:52.223Z,99.90
2023-02-01T02:04:55.889Z,99.90
2023-02-01T02:07:03.709Z,99.90
2023-02-01T02:09:07.732Z,99.90
2023-02-01T02:11:14.528Z,99.90
2023-02-01T02:13:21.137Z,99.90
2023-02-01T02:15:24.834Z,99.90
2023-02-01T02:17:37.326Z,99.90
2023-02-01T02:20:12.980Z,99.90
2023-02-01T02:22:46.001Z,99.90
2023-02-01T02:25:29.604Z,99.90
2023-02-01T02:27:45.193Z,99.90
2023-02-01T02:30:14.476Z,99.90
2023-02-01T02:32:54.942Z,99.90
2023-02-01T02:35:04.560Z,99.90
2023-02-01T02:37:18.246Z,99.90
2023-02-01T02:39:30.455Z,99.90
2023-02-01T02:41:56.369Z,99.90
2023-02-01T02:44:29.154Z,99.90
2023-02-01T02:46:58.485Z,99.90
2023-02-01T02:49:07.508Z,99.90
2023-02-01T02:51:34.789Z,99.90
2023-02-01T02:54:01.027Z,99.90
2023-02-01T02:56:25.307Z,99.90
2023-02-01T02:58:46.190Z,99.90
2023-02-01T03:01:08.919Z,99.90
2023-02-01T03:03:29.578Z,99.90
2023-02-01T03:05:36.261Z,99.90
2023-02-01T03:08:14.195Z,99.90
2023-02-01T03:10:25.736Z,99.90
2023-02-01T03:12:46.697Z,99.90
2023-02-01T03:14:57.819Z,99.90
2023-02-01T03:17:06.045Z,99.90
2023-02-01T03:19:15.463Z,99.90
2023-02-01T03:21:22.608Z,99.90
2023-02-01T03:23:33.008Z,99.90
2023-02-01T03:25:37.256Z,99.90
2023-02-01T03:27:44.389Z,99.90
2023-02-01T03:29:53.361Z,99.90
2023-02-01T03:31:56.828Z,99.90
2023-02-01T03:34:00.738Z,99.90
2023-02-01T03:36:12.135Z,99.90
2023-02-01T03:38:23.436Z,99.90
2023-02-01T03:40:29.985Z,99.90
2023-02-01T03:42:37.544Z,99.90
2023-02-01T03:44:47.885Z,99.90
2023-02-01T03:46:56.675Z,99.90
2023-02-01T03:49:01.833Z,99.90
2023-02-01T03:51:07.695Z,99.90
2023-02-01T03:53:16.449Z,99.90
2023-02-01T03:55:22.405Z,99.90
2023-02-01T03:57:31.682Z,99.90
2023-02-01T03:59:35.038Z,99.90
2023-02-01T04:01:38.423Z,99.90
2023-02-01T04:03:41.716Z,99.90
2023-02-01T04:05:45.065Z,99.90
2023-02-01T04:07:48.588Z,99.90
2023-02-01T04:09:51.905Z,99.90
2023-02-01T04:11:55.293Z,99.90
2023-02-01T04:14:05.180Z,99.90
2023-02-01T04:16:08.925Z,99.90
2023-02-01T04:18:12.226Z,99.90
2023-02-01T04:20:15.585Z,99.90
2023-02-01T04:22:18.789Z,99.90
2023-02-01T04:24:22.059Z,99.90
2023-02-01T04:26:25.380Z,99.90
2023-02-01T04:28:29.003Z,99.90
2023-02-01T04:30:34.012Z,99.90
2023-02-01T04:32:37.513Z,99.90
2023-02-01T04:34:40.801Z,99.90
2023-02-01T04:36:46.356Z,99.90
2023-02-01T04:38:51.019Z,99.90
2023-02-01T04:40:54.338Z,99.90
2023-02-01T04:42:57.611Z,99.90
2023-02-01T04:45:00.887Z,99.90
2023-02-01T04:47:05.643Z,99.90
2023-02-01T04:49:10.059Z,99.90
2023-02-01T04:51:16.255Z,99.90
2023-02-01T04:53:19.908Z,99.90
2023-02-01T04:55:23.308Z,99.90
2023-02-01T04:57:26.710Z,99.90
2023-02-01T04:59:30.181Z,99.90
2023-02-01T05:01:34.018Z,99.90
2023-02-01T05:03:38.692Z,99.90
2023-02-01T05:05:42.089Z,99.90
2023-02-01T05:07:45.613Z,99.90
2023-02-01T05:09:48.895Z,99.90
2023-02-01T05:12:09.880Z,99.90
2023-02-01T05:14:13.508Z,99.90
2023-02-01T05:16:17.343Z,99.90
2023-02-01T05:18:21.015Z,99.90
2023-02-01T05:20:26.424Z,99.90
2023-02-01T05:22:29.701Z,99.90
2023-02-01T05:24:33.046Z,99.90
2023-02-01T05:26:36.323Z,99.90
2023-02-01T05:28:39.700Z,99.90
2023-02-01T05:30:43.083Z,99.90
2023-02-01T05:32:46.500Z,99.90
2023-02-01T05:34:49.783Z,99.90
2023-02-01T05:36:54.600Z,99.90
2023-02-01T05:38:58.058Z,99.90
2023-02-01T05:41:01.654Z,99.90
2023-02-01T05:43:05.141Z,99.90
2023-02-01T05:45:09.913Z,99.90
2023-02-01T05:47:13.570Z,99.90
2023-02-01T05:49:16.960Z,99.90
2023-02-01T05:51:20.362Z,99.90
2023-02-01T05:53:25.224Z,99.90
2023-02-01T05:55:28.514Z,99.90
2023-02-01T05:57:32.292Z,99.90
2023-02-01T05:59:35.516Z,99.90
2023-02-01T06:01:38.923Z,99.90
2023-02-01T06:03:42.229Z,99.90
2023-02-01T06:05:46.548Z,99.90
2023-02-01T06:07:50.811Z,99.90
2023-02-01T06:09:55.439Z,99.90
2023-02-01T06:11:58.874Z,99.90
2023-02-01T06:14:02.322Z,99.90
2023-02-01T06:16:07.002Z,99.90
2023-02-01T06:18:10.487Z,99.90
2023-02-01T06:20:15.775Z,99.90
2023-02-01T06:22:19.218Z,99.90
2023-02-01T06:24:22.566Z,99.90
2023-02-01T06:26:29.768Z,99.90
2023-02-01T06:28:34.521Z,99.90
2023-02-01T06:30:37.982Z,99.90
2023-02-01T06:32:41.608Z,99.90
2023-02-01T06:34:44.926Z,99.90
2023-02-01T06:36:48.186Z,99.90
2023-02-01T06:38:51.698Z,99.90
2023-02-01T06:40:55.685Z,99.90
2023-02-01T06:43:00.414Z,99.90
2023-02-01T06:45:03.706Z,99.90
2023-02-01T06:47:09.140Z,99.90
2023-02-01T06:49:12.790Z,99.90
2023-02-01T06:51:22.885Z,99.90
2023-02-01T06:53:26.292Z,99.90
2023-02-01T06:55:29.605Z,99.90
2023-02-01T06:57:34.299Z,99.90
2023-02-01T06:59:39.104Z,99.90
2023-02-01T07:01:42.516Z,99.90
2023-02-01T07:03:50.245Z,99.90
2023-02-01T07:05:57.909Z,99.90
2023-02-01T07:08:01.296Z,99.90
2023-02-01T07:10:04.840Z,99.90
2023-02-01T07:12:08.841Z,99.90
2023-02-01T07:14:12.150Z,99.90
2023-02-01T07:16:18.817Z,99.90
2023-02-01T07:18:22.157Z,99.90
2023-02-01T07:20:25.882Z,99.90
2023-02-01T07:22:29.207Z,99.90
2023-02-01T07:24:32.859Z,99.90
2023-02-01T07:26:36.201Z,99.90
2023-02-01T07:28:39.643Z,99.90
2023-02-01T07:30:43.515Z,99.90
2023-02-01T07:32:48.315Z,99.90
2023-02-01T09:10:41.637Z,67.20
2023-02-01T09:12:45.111Z,60.90
2023-02-01T09:19:24.033Z,53.90
2023-02-01T09:25:27.429Z,52.80
2023-02-01T09:27:32.202Z,52.70
2023-02-01T09:29:35.634Z,53.00
2023-02-01T09:31:41.950Z,50.90
2023-02-01T09:33:47.674Z,49.90
2023-02-01T09:35:51.259Z,45.90
2023-02-01T09:37:54.996Z,45.10
2023-02-01T09:39:58.258Z,47.60
2023-02-01T09:44:20.474Z,44.00
2023-02-01T09:46:26.625Z,45.00
2023-02-01T10:35:56.579Z,32.00
2023-02-01T10:38:03.898Z,31.00
2023-02-01T10:40:21.347Z,30.40
2023-02-01T10:44:33.727Z,30.50
2023-02-01T10:46:37.270Z,29.70
2023-02-01T10:50:53.895Z,31.30
2023-02-01T10:53:02.626Z,31.30
2023-02-01T10:55:45.489Z,30.50
2023-02-01T10:57:58.559Z,33.10
2023-02-01T11:00:06.055Z,34.20
2023-02-01T11:02:21.874Z,35.20
2023-02-01T11:04:29.514Z,38.80
2023-02-01T11:06:35.742Z,37.40
2023-02-01T11:08:46.239Z,41.40
2023-02-01T11:10:59.053Z,41.10
2023-02-01T11:13:04.656Z,42.00
2023-02-01T11:15:20.320Z,37.80
2023-02-01T11:17:29.439Z,40.10
2023-02-01T11:19:34.531Z,39.60
2023-02-01T11:21:39.704Z,39.70
2023-02-01T11:23:46.302Z,40.10
2023-02-01T11:25:52.377Z,38.20
2023-02-01T11:27:57.934Z,38.50
2023-02-01T11:30:03.254Z,38.30
2023-02-01T11:32:07.339Z,39.80
2023-02-01T11:34:15.524Z,42.90
2023-02-01T11:36:23.329Z,41.20
2023-02-01T11:38:31.740Z,39.40
2023-02-01T11:40:38.157Z,39.20
2023-02-01T11:42:56.505Z,40.10
2023-02-01T11:45:20.943Z,39.00
2023-02-01T11:47:27.406Z,39.10
2023-02-01T11:49:31.877Z,40.60
2023-02-01T11:51:49.380Z,40.00
2023-02-01T11:54:27.402Z,39.50
2023-02-01T11:56:38.236Z,39.10
2023-02-01T11:59:10.529Z,38.60
2023-02-01T12:01:26.906Z,39.60
2023-02-01T12:03:59.562Z,40.70
2023-02-01T12:06:13.136Z,38.30
2023-02-01T12:08:37.517Z,36.50
2023-02-01T12:10:51.024Z,36.20
2023-02-01T12:13:08.998Z,37.00
2023-02-01T12:15:27.633Z,37.70
2023-02-01T12:17:47.062Z,37.30
2023-02-01T12:20:07.493Z,37.60
2023-02-01T12:22:31.942Z,38.10
2023-02-01T12:25:03.327Z,40.10
2023-02-01T12:27:23.929Z,38.70
2023-02-01T12:29:55.362Z,40.40
2023-02-01T12:32:12.383Z,39.10
2023-02-01T12:34:41.393Z,39.80
2023-02-01T12:36:50.192Z,38.60
2023-02-01T12:39:02.968Z,39.20
2023-02-01T12:41:35.455Z,39.70
2023-02-01T12:43:45.537Z,38.10
2023-02-01T12:45:55.191Z,37.30
2023-02-01T12:48:03.539Z,38.30
2023-02-01T12:50:14.772Z,39.20
2023-02-01T12:52:25.479Z,36.60
2023-02-01T12:54:36.820Z,36.60
2023-02-01T12:56:45.281Z,34.90
2023-02-01T12:58:52.365Z,34.20
2023-02-01T13:01:02.448Z,35.80
2023-02-01T13:03:13.776Z,33.80
2023-02-01T13:05:21.058Z,35.00
2023-02-01T13:07:30.512Z,34.50
2023-02-01T13:09:41.064Z,34.80
2023-02-01T13:11:48.931Z,35.00
2023-02-01T13:14:01.791Z,34.80
2023-02-01T13:16:19.022Z,35.00
2023-02-01T13:18:27.532Z,34.40
2023-02-01T13:20:34.531Z,34.90
2023-02-01T13:22:42.338Z,34.40
2023-02-01T13:24:49.553Z,33.80
2023-02-01T13:26:56.509Z,35.80
2023-02-01T13:29:03.851Z,34.00
2023-02-01T13:31:25.655Z,33.70
2023-02-01T13:33:56.453Z,35.70
2023-02-01T13:36:29.028Z,34.90
2023-02-01T13:39:00.291Z,36.10
2023-02-01T13:41:17.395Z,35.90
2023-02-01T13:43:25.803Z,34.30
2023-02-01T13:45:32.554Z,36.20
2023-02-01T13:47:41.410Z,35.90
2023-02-01T13:49:44.968Z,35.70
2023-02-01T13:51:50.788Z,34.60
2023-02-01T13:53:55.621Z,35.10
2023-02-01T13:56:02.080Z,35.30
2023-02-01T13:58:20.576Z,35.60
2023-02-01T14:00:32.078Z,36.00
2023-02-01T14:03:20.111Z,36.50
2023-02-01T14:06:00.670Z,37.00
2023-02-01T14:08:13.898Z,37.70
2023-02-01T14:10:49.192Z,36.30
2023-02-01T14:12:52.686Z,36.90
2023-02-01T14:15:23.114Z,37.00
2023-02-01T14:17:37.268Z,37.40
2023-02-01T14:19:40.696Z,38.90
2023-02-01T14:21:51.146Z,37.60
2023-02-01T14:24:00.696Z,37.80
2023-02-01T14:26:19.845Z,38.80
2023-02-01T14:28:27.540Z,38.10
2023-02-01T14:30:30.926Z,39.60
2023-02-01T14:32:40.327Z,39.40
2023-02-01T14:34:54.044Z,39.50
2023-02-01T14:37:00.948Z,41.30
2023-02-01T14:39:05.336Z,40.80
2023-02-01T14:41:32.964Z,40.40
2023-02-01T14:44:25.612Z,41.40
2023-02-01T14:47:04.031Z,40.70
2023-02-01T14:49:09.682Z,42.30
2023-02-01T14:51:16.954Z,42.40
2023-02-01T14:53:24.666Z,42.90
2023-02-01T14:55:33.559Z,44.40
2023-02-01T14:57:39.953Z,44.40
2023-02-01T14:59:43.250Z,44.90
2023-02-01T15:01:54.854Z,45.20
2023-02-01T15:04:03.417Z,45.20
2023-02-01T15:06:27.604Z,46.10
2023-02-01T15:08:34.353Z,47.00
2023-02-01T15:10:47.072Z,46.60
2023-02-01T15:12:51.695Z,46.90
2023-02-01T15:15:14.124Z,47.20
2023-02-01T15:17:22.635Z,47.30
2023-02-01T15:19:28.465Z,47.60
2023-02-01T15:21:33.245Z,47.50
2023-02-01T15:23:38.032Z,47.50
2023-02-01T15:25:42.199Z,48.60
2023-02-01T15:27:45.639Z,49.00
2023-02-01T15:29:49.029Z,49.60
2023-02-01T15:31:54.479Z,49.20
2023-02-01T15:34:01.013Z,49.60
2023-02-01T15:36:13.926Z,49.90
2023-02-01T15:38:41.025Z,50.00
2023-02-01T15:40:56.551Z,50.00
2023-02-01T15:43:01.589Z,49.60
2023-02-01T15:45:05.555Z,50.10
2023-02-01T15:47:15.915Z,50.50
2023-02-01T15:49:27.277Z,50.30
2023-02-01T15:51:33.695Z,52.00
2023-02-01T15:53:37.001Z,51.10
2023-02-01T15:55:44.218Z,52.70
2023-02-01T15:57:48.294Z,52.30
2023-02-01T15:59:56.399Z,53.40
2023-02-01T16:01:59.814Z,53.50
2023-02-01T16:04:17.843Z,54.00
2023-02-01T16:06:32.091Z,53.70
2023-02-01T16:08:37.875Z,53.40
2023-02-01T16:10:45.553Z,54.10
2023-02-01T16:12:50.335Z,54.40
2023-02-01T16:14:54.004Z,54.50
2023-02-01T16:17:00.268Z,54.60
2023-02-01T16:19:04.209Z,54.80
2023-02-01T16:21:09.039Z,55.40
2023-02-01T16:23:12.579Z,55.80
2023-02-01T16:25:16.294Z,55.80
2023-02-01T16:27:22.121Z,56.00
2023-02-01T16:29:25.379Z,55.70
2023-02-01T16:31:31.336Z,56.30
2023-02-01T16:33:34.778Z,56.80
2023-02-01T16:35:39.572Z,56.90
2023-02-01T16:37:43.135Z,56.60
2023-02-01T16:39:46.401Z,56.00
2023-02-01T16:41:50.079Z,56.70
2023-02-01T16:43:57.267Z,56.90
2023-02-01T16:46:03.806Z,58.10
2023-02-01T16:48:07.320Z,57.50
2023-02-01T16:50:23.551Z,57.60
2023-02-01T16:52:28.810Z,57.70
2023-02-01T16:54:32.045Z,58.30
2023-02-01T16:56:36.769Z,57.30
2023-02-01T16:58:42.253Z,57.90
2023-02-01T17:00:48.047Z,56.60
2023-02-01T17:02:51.409Z,58.00
2023-02-01T17:04:54.875Z,58.50
2023-02-01T17:06:59.294Z,57.80
2023-02-01T17:09:04.226Z,58.70
2023-02-01T17:11:08.818Z,58.40
2023-02-01T17:13:16.188Z,58.00
2023-02-01T17:15:19.788Z,58.70
2023-02-01T17:17:38.124Z,58.80
2023-02-01T17:19:42.533Z,58.50
2023-02-01T17:21:49.891Z,58.80
2023-02-01T17:23:54.173Z,59.00
2023-02-01T17:25:58.558Z,58.50
2023-02-01T17:28:02.359Z,58.80
2023-02-01T17:30:06.672Z,58.90
2023-02-01T17:32:17.491Z,58.80
2023-02-01T17:34:23.465Z,58.90
2023-02-01T17:36:27.095Z,59.00
2023-02-01T17:38:30.688Z,59.50
2023-02-01T17:40:35.100Z,59.90
2023-02-01T17:42:39.256Z,59.50
2023-02-01T17:44:42.696Z,59.50
2023-02-01T17:46:46.225Z,59.50
2023-02-01T17:48:49.504Z,59.50
2023-02-01T17:50:59.054Z,60.20
2023-02-01T17:53:06.139Z,60.10
2023-02-01T17:55:19.118Z,59.20
2023-02-01T17:57:22.590Z,59.40
2023-02-01T17:59:26.340Z,59.10
2023-02-01T18:01:29.750Z,58.70
2023-02-01T18:03:35.733Z,59.40
2023-02-01T18:05:42.733Z,59.30
2023-02-01T18:07:48.706Z,60.30
2023-02-01T18:09:52.101Z,59.90
2023-02-01T18:11:56.173Z,59.90
2023-02-01T18:13:59.689Z,59.60
2023-02-01T18:16:04.642Z,60.70
2023-02-01T18:18:08.141Z,60.40
2023-02-01T18:20:16.432Z,60.10
2023-02-01T18:22:22.688Z,59.10
2023-02-01T18:24:28.043Z,59.20
2023-02-01T18:26:32.612Z,60.20
2023-02-01T18:28:36.027Z,60.50
2023-02-01T18:30:39.562Z,60.70
2023-02-01T18:32:44.505Z,61.60
2023-02-01T18:34:47.853Z,61.80
2023-02-01T18:36:51.497Z,62.50
2023-02-01T18:38:56.574Z,64.00
2023-02-01T18:41:01.493Z,62.40
2023-02-01T18:43:05.236Z,63.30
2023-02-01T18:45:21.647Z,62.30
2023-02-01T18:47:25.215Z,62.80
2023-02-01T18:49:28.577Z,63.40
2023-02-01T18:51:31.940Z,64.30
2023-02-01T18:53:35.167Z,64.40
2023-02-01T18:55:38.495Z,63.70
2023-02-01T18:57:43.247Z,63.90
2023-02-01T18:59:46.656Z,65.10
2023-02-01T19:01:50.429Z,64.80
2023-02-01T19:04:01.547Z,66.30
2023-02-01T19:06:15.724Z,66.70
2023-02-01T19:08:19.012Z,67.30
2023-02-01T19:10:24.444Z,66.30
2023-02-01T19:12:27.719Z,66.70
2023-02-01T19:14:32.357Z,67.20
2023-02-01T19:16:39.887Z,66.60
2023-02-01T19:18:43.316Z,67.10
2023-02-01T19:20:47.282Z,67.40
2023-02-01T19:22:51.826Z,66.30
2023-02-01T19:24:55.190Z,65.50
2023-02-01T19:26:58.764Z,64.40
2023-02-01T19:29:02.080Z,65.40
2023-02-01T19:31:08.946Z,66.10
2023-02-01T19:33:12.432Z,65.90
2023-02-01T19:35:19.571Z,65.90
2023-02-01T19:37:23.020Z,65.50
2023-02-01T19:39:26.357Z,65.40
2023-02-01T19:41:29.667Z,66.10
2023-02-01T19:43:33.286Z,65.80
2023-02-01T19:45:36.634Z,65.60
2023-02-01T19:47:41.558Z,66.30
2023-02-01T19:49:45.158Z,66.80
2023-02-01T19:51:48.769Z,68.30
2023-02-01T19:53:52.083Z,69.20
2023-02-01T19:55:57.783Z,69.70
2023-02-01T19:58:02.481Z,70.10
2023-02-01T20:00:08.291Z,70.80
2023-02-01T20:02:15.105Z,72.00
2023-02-01T20:04:20.707Z,74.70
2023-02-01T20:06:24.351Z,75.10
2023-02-01T20:08:28.021Z,75.60
2023-02-01T20:10:31.416Z,75.80
2023-02-01T20:12:34.996Z,77.50
2023-02-01T20:14:38.862Z,79.10
2023-02-01T20:16:42.644Z,80.20
2023-02-01T20:18:45.904Z,81.00
2023-02-01T20:20:50.701Z,81.60
2023-02-01T20:22:57.669Z,83.50
2023-02-01T20:25:02.610Z,84.30
2023-02-01T20:27:06.914Z,85.80
2023-02-01T20:29:10.342Z,87.20
2023-02-01T20:31:15.557Z,89.20
2023-02-01T20:33:18.811Z,90.60
2023-02-01T20:35:22.502Z,91.50
2023-02-01T20:37:27.567Z,93.10
2023-02-01T20:39:30.935Z,97.60
2023-02-01T20:41:34.214Z,99.30
2023-02-01T20:43:37.834Z,99.90
2023-02-01T20:45:41.641Z,99.90
2023-02-01T20:47:44.923Z,99.90
2023-02-01T20:49:48.172Z,99.90
2023-02-01T20:51:51.631Z,99.90
2023-02-01T20:53:56.354Z,99.90
2023-02-01T20:56:00.508Z,99.90
2023-02-01T20:58:04.202Z,99.90
2023-02-01T21:00:10.311Z,99.90
2023-02-01T21:02:13.746Z,99.90
2023-02-01T21:04:17.192Z,99.90
2023-02-01T21:06:20.549Z,99.90
2023-02-01T21:08:24.372Z,99.90
2023-02-01T21:10:29.596Z,99.90
2023-02-01T21:12:33.076Z,99.90
2023-02-01T21:14:36.494Z,99.90
2023-02-01T21:16:40.201Z,99.90
2023-02-01T21:18:43.492Z,99.90
2023-02-01T21:20:47.944Z,99.90
2023-02-01T21:22:51.205Z,99.90
2023-02-01T21:24:54.657Z,99.90
2023-02-01T21:26:59.328Z,99.90
2023-02-01T21:29:02.708Z,99.90
2023-02-01T21:31:06.468Z,99.90
2023-02-01T21:33:10.620Z,99.90
2023-02-01T21:35:14.107Z,99.90
2023-02-01T21:37:17.391Z,99.90
2023-02-01T21:39:21.192Z,99.90
2023-02-01T21:41:43.687Z,99.90
2023-02-01T21:43:48.430Z,99.90
2023-02-01T21:45:51.773Z,99.90
2023-02-01T21:47:55.622Z,99.90
2023-02-01T21:49:58.973Z,99.90
2023-02-01T21:52:02.499Z,99.90
2023-02-01T21:54:06.050Z,99.90
2023-02-01T21:56:09.438Z,99.90
2023-02-01T21:58:13.445Z,99.90
2023-02-01T22:00:19.170Z,99.90
2023-02-01T22:02:22.842Z,99.90
2023-02-01T22:04:26.154Z,99.90
2023-02-01T22:06:30.890Z,99.90
2023-02-01T22:08:36.350Z,99.90
2023-02-01T22:10:42.095Z,99.90
2023-02-01T22:12:45.332Z,99.90
2023-02-01T22:14:49.678Z,99.90
2023-02-01T22:16:54.534Z,99.90
2023-02-01T22:18:57.988Z,99.90
2023-02-01T22:21:03.464Z,99.90
2023-02-01T22:23:06.749Z,99.90
2023-02-01T22:25:10.803Z,99.90
2023-02-01T22:27:14.734Z,99.90
2023-02-01T22:29:19.257Z,99.90
2023-02-01T22:31:23.150Z,99.90
2023-02-01T22:33:27.876Z,99.90
2023-02-01T22:35:31.096Z,99.90
2023-02-01T22:37:34.494Z,99.90
2023-02-01T22:39:37.777Z,99.90
2023-02-01T22:41:41.232Z,99.90
2023-02-01T22:43:44.961Z,99.90
2023-02-01T22:45:48.396Z,99.90
2023-02-01T22:47:52.935Z,99.90
2023-02-01T22:49:58.210Z,99.90
2023-02-01T22:52:01.899Z,99.90
2023-02-01T22:54:06.051Z,99.90
2023-02-01T22:56:12.334Z,99.90
2023-02-01T22:58:15.703Z,99.90
2023-02-01T23:00:19.366Z,99.90
2023-02-01T23:02:22.655Z,99.90
2023-02-01T23:04:26.053Z,99.90
2023-02-01T23:06:31.840Z,99.90
2023-02-01T23:08:35.978Z,99.90
2023-02-01T23:10:39.281Z,99.90
2023-02-01T23:12:42.529Z,99.90
2023-02-01T23:14:59.645Z,99.90
2023-02-01T23:17:03.385Z,99.90
2023-02-01T23:19:07.152Z,99.90
2023-02-01T23:21:12.805Z,99.90
2023-02-01T23:23:17.656Z,99.90
2023-02-01T23:25:21.121Z,99.90
2023-02-01T23:27:24.445Z,99.90
2023-02-01T23:29:28.518Z,99.90
2023-02-01T23:31:35.888Z,99.90
2023-02-01T23:33:40.164Z,99.90
2023-02-01T23:35:43.396Z,99.90
2023-02-01T23:37:46.697Z,99.90
2023-02-01T23:39:52.113Z,99.90
2023-02-01T23:41:55.358Z,99.90
2023-02-01T23:44:01.204Z,99.90
2023-02-01T23:46:04.615Z,99.90
2023-02-01T23:48:08.005Z,99.90
2023-02-01T23:50:12.100Z,99.90
2023-02-01T23:52:15.492Z,99.90
2023-02-01T23:54:18.833Z,99.90
2023-02-01T23:56:25.609Z,99.90
2023-02-01T23:58:29.208Z,99.90
